Time;durP1;ratioP1;P1;durP2;ratioP2;P2;SDS_P1;SDS_P2;PMS_P1;PMS_P2;Temp;Humidity;BMP_temperature;BMP_pressure;BME280_temperature;BME280_humidity;BME280_pressure;Samples;Min_cycle;Max_cycle;Signal;HPM_P1;HPM_P2
2022/09/15 00:00:31;;;;;;;1.05;1.05;;;25.10;54.70;;;;;;5025965;28;20520;-60
2022/09/15 00:02:58;;;;;;;1.63;1.13;;;25.10;54.70;;;;;;5026519;28;20049;-60
2022/09/15 00:05:25;;;;;;;1.00;0.90;;;25.10;54.70;;;;;;5026536;28;20078;-60
2022/09/15 00:07:52;;;;;;;0.70;0.70;;;25.10;54.70;;;;;;5028393;28;20075;-60
2022/09/15 00:10:20;;;;;;;0.80;0.80;;;25.10;54.60;;;;;;5030509;28;20166;-60
2022/09/15 00:12:47;;;;;;;1.00;1.00;;;25.10;55.20;;;;;;5029843;28;20041;-60
2022/09/15 00:15:15;;;;;;;0.80;0.80;;;25.10;54.60;;;;;;5030187;28;20051;-60
2022/09/15 00:17:48;;;;;;;1.00;1.00;;;25.10;54.60;;;;;;5030008;28;20046;-60
2022/09/15 00:20:15;;;;;;;0.70;0.70;;;25.10;54.60;;;;;;5028339;28;20060;-60
2022/09/15 00:22:42;;;;;;;1.15;1.00;;;25.10;54.60;;;;;;5026448;28;20084;-60
2022/09/15 00:25:10;;;;;;;0.80;0.80;;;25.10;55.20;;;;;;5029577;28;20060;-60
2022/09/15 00:27:37;;;;;;;0.70;0.70;;;25.10;54.60;;;;;;5029816;28;20192;-61
2022/09/15 00:30:06;;;;;;;2.70;1.10;;;25.10;54.60;;;;;;5029611;28;20049;-60
2022/09/15 00:32:33;;;;;;;2.28;0.90;;;25.10;54.60;;;;;;5029188;28;20045;-60
2022/09/15 00:35:00;;;;;;;1.17;1.10;;;25.10;54.60;;;;;;5029124;28;20490;-60
2022/09/15 00:37:27;;;;;;;1.65;0.88;;;25.10;54.60;;;;;;5011838;28;20257;-60
2022/09/15 00:39:54;;;;;;;0.68;0.68;;;25.10;54.60;;;;;;5029444;28;20045;-60
2022/09/15 00:42:22;;;;;;;0.90;0.90;;;25.10;54.60;;;;;;5011350;28;20501;-60
2022/09/15 00:45:01;;;;;;;1.00;1.00;;;25.10;54.60;;;;;;5029523;28;20498;-60
2022/09/15 00:47:38;;;;;;;0.80;0.80;;;25.10;54.60;;;;;;5029088;28;20060;-60
2022/09/15 00:50:12;;;;;;;0.70;0.70;;;25.10;54.60;;;;;;5042966;28;20057;-60
2022/09/15 00:52:57;;;;;;;1.60;0.90;;;25.10;55.10;;;;;;5029657;28;20045;-60
2022/09/15 00:55:30;;;;;;;2.38;1.05;;;25.10;54.60;;;;;;5048862;28;20055;-60
2022/09/15 00:58:05;;;;;;;0.90;0.90;;;25.10;54.60;;;;;;5048743;28;20512;-60
2022/09/15 01:00:34;;;;;;;1.55;0.93;;;25.10;54.60;;;;;;5031032;28;20079;-60
2022/09/15 01:03:02;;;;;;;1.33;0.90;;;25.10;54.60;;;;;;5048842;28;20114;-60
2022/09/15 01:05:50;;;;;;;0.70;0.70;;;25.10;54.60;;;;;;5048175;28;20468;-60
2022/09/15 01:08:28;;;;;;;1.23;0.90;;;25.10;54.60;;;;;;5048322;28;20522;-60
2022/09/15 01:10:55;;;;;;;0.60;0.60;;;25.10;54.60;;;;;;5048923;28;20345;-60
2022/09/15 01:13:22;;;;;;;0.85;0.85;;;25.10;54.60;;;;;;5048335;28;20654;-60
2022/09/15 01:16:17;;;;;;;1.00;0.70;;;25.10;54.50;;;;;;5048391;28;20132;-60
2022/09/15 01:19:11;;;;;;;2.35;0.80;;;25.10;54.50;;;;;;5047391;28;20045;-60
2022/09/15 01:21:57;;;;;;;0.85;0.85;;;25.10;54.50;;;;;;5048852;28;20051;-60
2022/09/15 01:24:54;;;;;;;1.10;1.00;;;25.10;54.50;;;;;;5045611;28;20087;-60
2022/09/15 01:27:54;;;;;;;1.00;0.95;;;25.10;54.50;;;;;;5048751;28;20045;-60
2022/09/15 01:30:23;;;;;;;0.98;0.93;;;25.10;54.50;;;;;;5033727;28;20409;-60
2022/09/15 01:33:29;;;;;;;0.80;0.80;;;25.10;54.40;;;;;;5048483;28;20101;-60
2022/09/15 01:36:36;;;;;;;1.00;1.00;;;25.10;54.40;;;;;;5036033;28;20049;-60
2022/09/15 01:39:14;;;;;;;0.90;0.90;;;25.10;54.40;;;;;;5047070;28;20052;-60
2022/09/15 01:41:49;;;;;;;0.77;0.75;;;25.10;54.40;;;;;;5048187;28;20080;-60
2022/09/15 01:44:27;;;;;;;0.85;0.85;;;25.10;55.00;;;;;;5047989;28;20059;-60
2022/09/15 01:46:59;;;;;;;0.82;0.82;;;25.10;54.40;;;;;;5030174;28;20053;-60
2022/09/15 01:49:33;;;;;;;0.77;0.73;;;25.10;54.40;;;;;;5022384;28;20052;-60
2022/09/15 01:52:00;;;;;;;0.65;0.65;;;25.10;54.40;;;;;;5028015;28;20064;-60
2022/09/15 01:54:32;;;;;;;1.13;1.00;;;25.10;54.40;;;;;;5027840;28;20057;-60
2022/09/15 01:57:01;;;;;;;0.85;0.70;;;25.10;54.40;;;;;;5023380;28;20175;-60
2022/09/15 01:59:29;;;;;;;0.63;0.63;;;25.10;54.40;;;;;;5027322;28;20063;-60
2022/09/15 02:02:15;;;;;;;0.80;0.70;;;25.10;54.40;;;;;;5028373;28;20424;-60
2022/09/15 02:04:51;;;;;;;0.88;0.88;;;25.10;54.40;;;;;;5011073;28;20145;-60
2022/09/15 02:07:35;;;;;;;0.90;0.90;;;25.10;54.40;;;;;;5028342;28;20084;-60
2022/09/15 02:10:10;;;;;;;0.70;0.70;;;25.10;54.40;;;;;;5027602;28;20056;-60
2022/09/15 02:12:52;;;;;;;0.82;0.70;;;25.10;54.40;;;;;;5027155;28;20144;-60
2022/09/15 02:15:27;;;;;;;0.93;0.90;;;25.10;54.40;;;;;;5027341;28;20049;-60
2022/09/15 02:17:58;;;;;;;0.45;0.45;;;25.10;54.40;;;;;;5027543;28;20045;-61
2022/09/15 02:20:48;;;;;;;0.90;0.90;;;25.10;54.40;;;;;;5010053;28;20513;-60
2022/09/15 02:23:26;;;;;;;;;;;25.10;54.40;;;;;;5027898;28;20132;-60
2022/09/15 02:26:03;;;;;;;0.88;0.88;;;25.10;54.40;;;;;;5009154;28;20012;-60
2022/09/15 02:28:36;;;;;;;0.90;0.80;;;25.10;54.50;;;;;;5007985;28;20053;-60
2022/09/15 02:31:05;;;;;;;0.80;0.80;;;25.10;54.50;;;;;;5006400;28;20041;-60
2022/09/15 02:33:40;;;;;;;0.75;0.73;;;25.10;54.50;;;;;;5027619;28;20232;-60
2022/09/15 02:36:09;;;;;;;1.08;0.98;;;25.10;54.50;;;;;;5026783;28;20050;-60
2022/09/15 02:38:42;;;;;;;1.05;0.95;;;25.10;54.50;;;;;;5027241;28;20294;-60
2022/09/15 02:41:11;;;;;;;0.60;0.60;;;25.10;54.50;;;;;;5026620;28;20120;-60
2022/09/15 02:43:46;;;;;;;0.60;0.60;;;25.10;54.50;;;;;;5027594;28;20056;-60
2022/09/15 02:46:17;;;;;;;0.50;0.50;;;25.10;54.50;;;;;;5026909;28;20052;-60
2022/09/15 02:48:45;;;;;;;0.60;0.60;;;25.10;54.50;;;;;;5031768;28;20119;-60
2022/09/15 02:51:13;;;;;;;0.65;0.65;;;25.10;54.40;;;;;;5027117;28;20042;-60
2022/09/15 02:53:41;;;;;;;0.70;0.70;;;25.10;54.40;;;;;;5027035;28;20493;-60
2022/09/15 02:56:08;;;;;;;0.60;0.60;;;25.10;54.40;;;;;;5026713;28;20123;-60
2022/09/15 02:58:36;;;;;;;0.65;0.65;;;25.10;54.50;;;;;;5027754;28;20045;-60
2022/09/15 03:01:04;;;;;;;0.80;0.80;;;25.10;54.50;;;;;;5025060;28;20050;-60
2022/09/15 03:03:33;;;;;;;0.82;0.82;;;25.10;54.40;;;;;;5007848;28;20497;-60
2022/09/15 03:06:16;;;;;;;0.85;0.85;;;25.10;54.40;;;;;;5026576;28;20061;-60
2022/09/15 03:08:48;;;;;;;0.70;0.70;;;25.10;54.40;;;;;;5027293;28;20053;-60
2022/09/15 03:11:16;;;;;;;0.93;0.80;;;25.10;54.40;;;;;;5026592;28;20056;-60
2022/09/15 03:13:44;;;;;;;0.85;0.80;;;25.10;54.40;;;;;;5026829;28;20045;-60
2022/09/15 03:16:13;;;;;;;1.90;0.88;;;25.10;54.40;;;;;;5026290;28;20053;-60
2022/09/15 03:18:40;;;;;;;1.17;0.93;;;25.10;54.40;;;;;;5026600;28;20159;-60
2022/09/15 03:21:11;;;;;;;0.82;0.82;;;25.10;54.40;;;;;;5026914;28;20042;-61
2022/09/15 03:23:39;;;;;;;0.77;0.77;;;25.10;54.40;;;;;;5026745;28;20042;-60
2022/09/15 03:26:07;;;;;;;0.50;0.50;;;25.10;54.40;;;;;;5027110;28;20049;-61
2022/09/15 03:28:37;;;;;;;1.23;0.90;;;25.10;54.40;;;;;;5026628;28;20049;-60
2022/09/15 03:31:05;;;;;;;0.70;0.70;;;25.10;54.40;;;;;;5027016;28;20064;-60
2022/09/15 03:33:32;;;;;;;0.60;0.55;;;25.10;54.40;;;;;;5022461;28;20373;-60
2022/09/15 03:36:01;;;;;;;0.90;0.90;;;25.10;54.40;;;;;;5034849;28;20306;-60
2022/09/15 03:38:28;;;;;;;1.10;0.68;;;25.10;54.50;;;;;;5027167;28;20071;-60
2022/09/15 03:41:06;;;;;;;0.70;0.70;;;25.10;54.50;;;;;;5043468;28;20045;-60
2022/09/15 03:43:34;;;;;;;0.60;0.60;;;25.10;54.50;;;;;;5049337;28;20109;-60
2022/09/15 03:46:03;;;;;;;2.08;1.25;;;25.10;54.50;;;;;;5047979;28;20041;-60
2022/09/15 03:48:33;;;;;;;0.80;0.75;;;25.00;54.40;;;;;;5044898;28;20080;-60
2022/09/15 03:51:04;;;;;;;0.75;0.75;;;25.00;54.40;;;;;;5038732;28;20041;-60
2022/09/15 03:53:33;;;;;;;1.35;0.77;;;25.00;54.40;;;;;;5029923;28;20049;-61
2022/09/15 03:56:21;;;;;;;1.02;0.90;;;25.10;54.50;;;;;;5030480;28;20129;-60
2022/09/15 03:58:49;;;;;;;0.80;0.80;;;25.00;54.50;;;;;;5026794;28;20135;-60
2022/09/15 04:01:17;;;;;;;0.75;0.70;;;25.00;54.50;;;;;;5032095;28;20059;-60
2022/09/15 04:03:45;;;;;;;1.05;0.73;;;25.00;54.50;;;;;;5042433;28;20442;-60
2022/09/15 04:06:18;;;;;;;0.75;0.73;;;25.00;54.50;;;;;;5024750;28;20050;-60
2022/09/15 04:08:45;;;;;;;0.77;0.77;;;25.00;54.60;;;;;;5029875;28;20132;-60
2022/09/15 04:11:12;;;;;;;1.20;1.10;;;25.00;54.60;;;;;;5029752;28;20063;-60
2022/09/15 04:13:40;;;;;;;1.20;0.82;;;25.00;54.60;;;;;;5011785;28;20486;-60
2022/09/15 04:16:11;;;;;;;0.80;0.80;;;25.00;54.60;;;;;;5037400;28;20566;-60
2022/09/15 04:18:38;;;;;;;;;;;25.00;54.60;;;;;;5024192;28;20052;-60
2022/09/15 04:21:08;;;;;;;0.85;0.80;;;25.00;54.60;;;;;;5037611;28;19932;-60
2022/09/15 04:23:36;;;;;;;0.63;0.63;;;25.00;54.70;;;;;;5037914;28;20049;-60
2022/09/15 04:26:06;;;;;;;0.73;0.73;;;25.00;54.70;;;;;;5038564;28;20048;-60
2022/09/15 04:28:35;;;;;;;0.80;0.80;;;25.00;54.70;;;;;;5038440;28;20055;-60
2022/09/15 04:31:09;;;;;;;1.08;0.70;;;24.90;54.70;;;;;;5028298;28;20433;-60
2022/09/15 04:33:37;;;;;;;0.60;0.60;;;25.00;54.70;;;;;;5043444;28;20049;-60
2022/09/15 04:36:08;;;;;;;2.00;0.82;;;25.00;54.70;;;;;;5034508;28;20056;-60
2022/09/15 04:38:35;;;;;;;1.08;1.05;;;25.00;54.80;;;;;;5033518;28;20046;-60
2022/09/15 04:41:03;;;;;;;1.40;0.70;;;25.00;54.80;;;;;;5045076;28;20459;-60
2022/09/15 04:43:31;;;;;;;0.60;0.60;;;25.00;54.80;;;;;;5038802;28;20315;-60
2022/09/15 04:45:58;;;;;;;2.17;1.00;;;25.00;54.90;;;;;;5037276;28;20072;-60
2022/09/15 04:48:26;;;;;;;0.70;0.70;;;25.00;54.90;;;;;;5035619;28;20041;-60
2022/09/15 04:50:53;;;;;;;0.88;0.85;;;25.00;54.90;;;;;;5047238;28;20131;-60
2022/09/15 04:53:20;;;;;;;0.70;0.70;;;25.00;54.90;;;;;;5046839;28;20097;-61
2022/09/15 04:55:47;;;;;;;0.73;0.70;;;25.00;55.00;;;;;;5041616;28;20051;-60
2022/09/15 04:58:15;;;;;;;2.00;1.02;;;25.00;55.10;;;;;;5040253;28;20501;-60
2022/09/15 05:00:42;;;;;;;1.08;1.00;;;25.00;55.10;;;;;;5044497;28;20512;-60
2022/09/15 05:03:11;;;;;;;0.80;0.80;;;25.00;55.20;;;;;;5031613;28;20049;-60
2022/09/15 05:05:38;;;;;;;1.08;0.93;;;25.00;55.20;;;;;;5044788;28;20290;-60
2022/09/15 05:08:07;;;;;;;2.22;0.73;;;25.00;55.20;;;;;;5045360;28;20056;-60
2022/09/15 05:10:34;;;;;;;0.95;0.80;;;25.00;55.20;;;;;;5035110;28;20092;-60
2022/09/15 05:13:01;;;;;;;1.70;1.15;;;25.00;55.20;;;;;;5040531;28;20217;-60
2022/09/15 05:15:28;;;;;;;1.92;0.80;;;25.00;55.30;;;;;;5044017;28;20057;-60
2022/09/15 05:17:55;;;;;;;1.02;0.80;;;25.00;55.40;;;;;;5038392;28;20111;-60
2022/09/15 05:20:22;;;;;;;6.25;1.58;;;24.90;55.50;;;;;;5040138;28;20492;-58
2022/09/15 05:22:50;;;;;;;1.30;1.23;;;24.80;55.90;;;;;;5036878;28;20060;-57
2022/09/15 05:25:17;;;;;;;2.90;0.90;;;24.60;56.20;;;;;;5035573;28;20040;-58
2022/09/15 05:27:44;;;;;;;2.80;1.23;;;24.40;56.20;;;;;;5036523;28;20050;-58
2022/09/15 05:30:12;;;;;;;1.27;1.17;;;24.20;55.70;;;;;;5037887;28;20045;-58
2022/09/15 05:32:59;;;;;;;0.98;0.80;;;24.00;55.30;;;;;;5034393;28;20045;-58
2022/09/15 05:35:27;;;;;;;1.33;1.10;;;23.60;55.00;;;;;;5017652;28;20049;-58
2022/09/15 05:37:54;;;;;;;6.18;1.35;;;23.40;54.90;;;;;;5037163;28;20041;-58
2022/09/15 05:40:21;;;;;;;2.05;1.40;;;23.10;54.80;;;;;;5033490;28;20060;-58
2022/09/15 05:42:49;;;;;;;2.80;1.40;;;22.80;55.30;;;;;;5031558;28;20055;-57
2022/09/15 05:45:16;;;;;;;1.95;1.10;;;22.50;56.30;;;;;;5034957;28;20042;-58
2022/09/15 05:47:43;;;;;;;6.10;1.40;;;22.30;57.00;;;;;;5040025;28;20741;-58
2022/09/15 05:50:10;;;;;;;2.53;1.45;;;22.10;56.40;;;;;;5039580;28;20044;-58
2022/09/15 05:52:37;;;;;;;4.88;2.13;;;21.90;58.00;;;;;;5034020;28;20046;-59
2022/09/15 05:55:05;;;;;;;2.50;1.23;;;21.80;58.90;;;;;;5022906;28;20072;-58
2022/09/15 05:57:32;;;;;;;2.15;1.20;;;21.60;58.60;;;;;;5037678;28;20060;-58
2022/09/15 05:59:59;;;;;;;1.60;1.10;;;21.50;59.00;;;;;;5037193;28;20067;-59
2022/09/15 06:02:26;;;;;;;2.50;1.60;;;21.40;58.90;;;;;;5029175;28;20045;-58
2022/09/15 06:04:54;;;;;;;2.70;1.35;;;21.30;58.60;;;;;;5036920;28;20100;-58
2022/09/15 06:07:21;;;;;;;1.88;1.20;;;21.20;58.50;;;;;;5031053;28;20045;-58
2022/09/15 06:09:50;;;;;;;1.42;1.33;;;21.10;59.30;;;;;;5031351;28;20045;-58
2022/09/15 06:12:18;;;;;;;1.55;1.27;;;21.10;59.10;;;;;;5034390;28;20064;-58
2022/09/15 06:14:49;;;;;;;4.15;1.58;;;21.00;58.50;;;;;;5029947;28;20041;-58
2022/09/15 06:17:16;;;;;;;4.50;1.50;;;21.00;59.80;;;;;;5033276;28;20049;-59
2022/09/15 06:19:44;;;;;;;3.00;1.92;;;20.90;60.40;;;;;;5039646;28;20049;-59
2022/09/15 06:22:12;;;;;;;3.83;2.17;;;20.80;59.60;;;;;;5036798;28;20060;-60
2022/09/15 06:24:39;;;;;;;6.45;1.70;;;20.70;59.70;;;;;;5034186;28;20065;-58
2022/09/15 06:27:06;;;;;;;4.32;1.63;;;20.70;60.90;;;;;;5035872;28;20049;-59
2022/09/15 06:29:35;;;;;;;24.27;2.15;;;20.60;61.40;;;;;;5037832;28;20052;-59
2022/09/15 06:32:03;;;;;;;4.45;1.42;;;20.50;60.10;;;;;;5032257;28;20071;-59
2022/09/15 06:34:31;;;;;;;2.67;1.52;;;20.50;62.00;;;;;;5033124;28;20049;-59
2022/09/15 06:36:59;;;;;;;7.22;2.03;;;20.50;62.10;;;;;;5037650;28;21195;-59
2022/09/15 06:39:26;;;;;;;13.25;1.83;;;20.50;61.80;;;;;;5032029;28;20051;-59
2022/09/15 06:41:53;;;;;;;13.48;2.17;;;20.50;62.60;;;;;;5036135;28;20056;-61
2022/09/15 06:44:31;;;;;;;3.72;1.80;;;20.50;64.60;;;;;;5043459;28;20748;-61
2022/09/15 06:46:58;;;;;;;6.65;2.13;;;20.80;67.40;;;;;;5031246;28;20084;-61
2022/09/15 06:49:25;;;;;;;8.05;2.03;;;21.10;67.50;;;;;;5032243;28;20481;-61
2022/09/15 06:51:52;;;;;;;1.45;1.20;;;21.50;67.00;;;;;;5035492;28;20057;-62
2022/09/15 06:54:20;;;;;;;5.20;1.90;;;21.80;66.00;;;;;;5039287;28;20045;-61
2022/09/15 06:56:47;;;;;;;3.42;1.50;;;22.20;65.10;;;;;;5019676;28;20057;-61
2022/09/15 06:59:15;;;;;;;3.67;1.80;;;22.50;64.30;;;;;;5029739;28;20053;-63
2022/09/15 07:01:43;;;;;;;2.88;1.75;;;22.80;63.50;;;;;;5034582;28;20398;-61
2022/09/15 07:04:10;;;;;;;4.00;1.58;;;23.10;62.70;;;;;;5039866;28;20065;-60
2022/09/15 07:06:38;;;;;;;3.05;1.52;;;23.40;62.10;;;;;;5037065;28;20143;-60
2022/09/15 07:09:05;;;;;;;4.38;1.75;;;23.60;61.50;;;;;;5030714;28;20526;-61
2022/09/15 07:11:33;;;;;;;3.97;1.60;;;23.80;60.80;;;;;;5036669;28;20373;-60
2022/09/15 07:14:00;;;;;;;4.15;2.65;;;24.00;60.30;;;;;;5032950;28;20053;-60
2022/09/15 07:16:27;;;;;;;1.92;1.60;;;24.20;59.90;;;;;;5037385;28;20481;-60
2022/09/15 07:18:56;;;;;;;2.00;1.63;;;24.30;59.50;;;;;;5032826;28;20400;-61
2022/09/15 07:21:23;;;;;;;3.47;1.73;;;24.50;59.20;;;;;;5038097;28;20489;-61
2022/09/15 07:23:50;;;;;;;5.53;3.05;;;24.60;58.80;;;;;;5019782;28;20053;-63
2022/09/15 07:26:21;;;;;;;6.68;2.22;;;24.70;58.40;;;;;;5036539;28;20057;-61
2022/09/15 07:28:53;;;;;;;5.53;2.90;;;24.80;58.00;;;;;;5039037;28;20045;-60
2022/09/15 07:31:21;;;;;;;4.80;2.80;;;24.90;57.70;;;;;;5036645;28;20060;-59
2022/09/15 07:33:49;;;;;;;6.60;3.42;;;25.10;57.60;;;;;;5039463;28;20493;-61
2022/09/15 07:36:16;;;;;;;3.75;2.65;;;25.10;57.40;;;;;;5038038;28;20436;-60
2022/09/15 07:38:46;;;;;;;6.35;3.13;;;25.20;57.30;;;;;;5039783;28;20492;-61
2022/09/15 07:41:17;;;;;;;6.10;2.70;;;25.30;57.30;;;;;;5035529;28;20435;-61
2022/09/15 07:43:46;;;;;;;5.18;2.70;;;25.30;57.10;;;;;;5040744;28;20512;-59
2022/09/15 07:46:14;;;;;;;5.90;3.00;;;25.40;57.00;;;;;;5036826;28;20540;-61
2022/09/15 07:48:45;;;;;;;4.35;2.92;;;25.50;57.00;;;;;;5037609;28;20057;-61
2022/09/15 07:51:14;;;;;;;4.20;2.92;;;25.60;56.90;;;;;;5035089;28;20061;-62
2022/09/15 07:53:42;;;;;;;5.47;2.67;;;25.60;56.70;;;;;;5035123;28;20052;-60
2022/09/15 07:56:09;;;;;;;4.72;2.53;;;25.60;56.60;;;;;;5034561;28;20068;-61
2022/09/15 07:58:37;;;;;;;3.65;2.67;;;25.70;56.30;;;;;;5036340;28;20048;-61
2022/09/15 08:01:06;;;;;;;3.75;2.65;;;25.70;56.10;;;;;;5039617;28;20516;-61
2022/09/15 08:03:33;;;;;;;4.80;2.72;;;25.80;56.00;;;;;;5037592;28;20496;-61
2022/09/15 08:06:02;;;;;;;7.07;2.70;;;25.80;55.80;;;;;;5038615;28;20053;-60
2022/09/15 08:08:29;;;;;;;5.43;2.45;;;25.90;55.70;;;;;;5040007;28;20135;-60
2022/09/15 08:10:56;;;;;;;6.18;1.80;;;25.90;55.50;;;;;;5038335;28;20040;-61
2022/09/15 08:13:24;;;;;;;4.10;2.17;;;26.00;55.50;;;;;;5041306;28;20730;-61
2022/09/15 08:15:51;;;;;;;4.05;2.28;;;26.10;55.40;;;;;;5040521;28;20049;-62
2022/09/15 08:18:18;;;;;;;3.15;1.77;;;26.10;55.90;;;;;;5037115;28;20133;-61
2022/09/15 08:20:46;;;;;;;2.15;1.65;;;26.10;55.10;;;;;;5016958;28;20080;-60
2022/09/15 08:23:13;;;;;;;3.90;1.98;;;26.10;54.90;;;;;;5038317;28;20057;-61
2022/09/15 08:25:40;;;;;;;3.30;1.52;;;26.20;54.80;;;;;;5041028;28;20041;-62
2022/09/15 08:28:07;;;;;;;4.22;1.80;;;26.20;54.60;;;;;;5035070;28;20416;-61
2022/09/15 08:30:34;;;;;;;4.05;1.50;;;26.20;54.40;;;;;;5023296;28;20143;-59
2022/09/15 08:33:02;;;;;;;3.25;1.70;;;26.30;54.40;;;;;;5039298;28;20591;-62
2022/09/15 08:35:31;;;;;;;5.85;1.55;;;26.30;54.10;;;;;;5044127;28;20041;-60
2022/09/15 08:37:58;;;;;;;2.70;2.20;;;26.40;53.90;;;;;;5036140;28;20100;-60
2022/09/15 08:40:34;;;;;;;5.25;1.80;;;26.40;53.60;;;;;;5036785;28;20572;-58
2022/09/15 08:43:16;;;;;;;4.63;1.73;;;26.50;53.50;;;;;;5038600;28;20053;-61
2022/09/15 08:45:58;;;;;;;3.28;1.65;;;26.50;53.30;;;;;;5038179;28;20559;-59
2022/09/15 08:48:37;;;;;;;3.63;2.22;;;26.50;53.20;;;;;;5038631;28;20036;-58
2022/09/15 08:51:12;;;;;;;2.92;2.00;;;26.60;53.20;;;;;;5035563;28;20077;-59
2022/09/15 08:53:45;;;;;;;3.00;2.08;;;26.60;53.00;;;;;;5035597;28;20048;-61
2022/09/15 08:56:16;;;;;;;1.77;1.67;;;26.60;52.90;;;;;;5036910;28;20174;-61
2022/09/15 08:58:47;;;;;;;2.83;2.00;;;26.60;52.60;;;;;;5031252;28;20796;-60
2022/09/15 09:01:40;;;;;;;1.38;1.25;;;26.60;52.50;;;;;;5033916;28;20049;-61
2022/09/15 09:04:33;;;;;;;4.72;1.23;;;26.70;52.50;;;;;;5018633;28;20045;-61
2022/09/15 09:07:31;;;;;;;1.58;1.10;;;26.70;52.40;;;;;;5031796;28;20059;-60
2022/09/15 09:10:11;;;;;;;2.05;1.30;;;26.70;52.30;;;;;;5029657;28;20412;-59
2022/09/15 09:12:49;;;;;;;;;;;26.80;52.30;;;;;;5037438;28;20156;-61
2022/09/15 09:15:41;;;;;;;5.28;1.50;;;26.80;52.20;;;;;;5038244;28;19938;-60
2022/09/15 09:18:45;;;;;;;7.05;1.52;;;26.80;52.20;;;;;;5032677;28;20041;-59
2022/09/15 09:21:23;;;;;;;1.90;1.63;;;26.80;52.10;;;;;;5027312;28;20045;-60
2022/09/15 09:24:05;;;;;;;1.88;1.48;;;26.90;52.20;;;;;;5036798;28;20045;-59
2022/09/15 09:26:35;;;;;;;4.78;2.22;;;26.90;52.20;;;;;;5023468;28;20140;-59
2022/09/15 09:29:10;;;;;;;;;;;27.00;52.30;;;;;;5017439;28;20091;-58
2022/09/15 09:31:40;;;;;;;2.22;1.50;;;27.00;53.00;;;;;;5033102;28;19932;-61
2022/09/15 09:34:35;;;;;;;2.90;1.52;;;27.00;53.10;;;;;;5035532;28;20041;-59
2022/09/15 09:37:13;;;;;;;3.53;1.38;;;27.10;53.30;;;;;;5038144;28;20045;-58
2022/09/15 09:39:40;;;;;;;6.88;1.45;;;27.10;52.90;;;;;;5037484;28;20067;-58
2022/09/15 09:42:14;;;;;;;2.65;1.55;;;27.20;52.80;;;;;;5037165;28;20048;-59
2022/09/15 09:44:42;;;;;;;5.20;1.65;;;27.20;52.80;;;;;;5036025;28;20056;-58
2022/09/15 09:47:11;;;;;;;7.57;2.15;;;27.30;53.00;;;;;;5035734;28;20079;-59
2022/09/15 09:49:46;;;;;;;4.90;1.42;;;27.30;52.60;;;;;;5039972;28;20053;-59
2022/09/15 09:52:33;;;;;;;3.22;1.23;;;27.30;52.50;;;;;;5034917;28;20462;-58
2022/09/15 09:55:02;;;;;;;3.00;1.98;;;27.30;52.20;;;;;;5040782;28;20535;-59
2022/09/15 09:57:35;;;;;;;4.20;1.63;;;27.30;52.10;;;;;;5038268;28;20108;-58
2022/09/15 10:00:32;;;;;;;4.13;1.50;;;27.40;52.20;;;;;;5018802;28;20048;-58
2022/09/15 10:03:21;;;;;;;4.57;1.25;;;27.40;52.10;;;;;;5037210;28;20096;-60
2022/09/15 10:06:05;;;;;;;3.72;1.42;;;27.40;52.00;;;;;;5035242;28;20048;-58
2022/09/15 10:08:35;;;;;;;3.50;1.40;;;27.40;51.80;;;;;;5040524;28;20520;-59
2022/09/15 10:11:05;;;;;;;5.40;1.45;;;27.40;51.80;;;;;;5034537;28;20045;-59
2022/09/15 10:13:34;;;;;;;5.30;1.40;;;27.40;51.90;;;;;;5038534;28;20049;-59
2022/09/15 10:16:05;;;;;;;2.90;1.77;;;27.40;51.70;;;;;;5037549;28;20045;-59
2022/09/15 10:18:36;;;;;;;5.40;1.63;;;27.30;51.40;;;;;;5037047;28;20049;-59
2022/09/15 10:21:06;;;;;;;4.88;1.35;;;27.30;55.20;;;;;;5031327;28;20049;-58
2022/09/15 10:23:33;;;;;;;6.93;2.10;;;27.10;51.80;;;;;;5033325;28;20056;-61
2022/09/15 10:26:28;;;;;;;2.55;1.10;;;26.70;47.50;;;;;;5034191;28;20059;-60
2022/09/15 10:29:17;;;;;;;3.55;0.95;;;26.10;48.30;;;;;;5034234;28;20053;-60
2022/09/15 10:31:45;;;;;;;4.15;1.98;;;25.60;49.30;;;;;;5037060;28;20136;-59
2022/09/15 10:34:29;;;;;;;2.97;1.73;;;25.10;50.00;;;;;;5039187;28;20081;-59
2022/09/15 10:37:26;;;;;;;3.60;1.17;;;24.70;51.20;;;;;;5028937;28;20497;-59
2022/09/15 10:39:57;;;;;;;7.50;1.60;;;24.30;51.90;;;;;;5028858;28;20052;-59
2022/09/15 10:42:50;;;;;;;1.95;1.40;;;24.00;52.90;;;;;;5036329;28;20232;-59
2022/09/15 10:45:32;;;;;;;5.90;1.83;;;23.70;53.20;;;;;;5028884;28;20056;-59
2022/09/15 10:48:29;;;;;;;5.22;1.52;;;23.60;54.00;;;;;;5035303;28;20057;-60
2022/09/15 10:51:28;;;;;;;4.57;1.65;;;23.50;54.70;;;;;;5033970;28;20053;-58
2022/09/15 10:54:22;;;;;;;10.98;1.75;;;23.40;54.40;;;;;;5032033;28;20497;-59
2022/09/15 10:56:56;;;;;;;8.00;1.50;;;23.20;54.70;;;;;;5032328;28;20041;-59
2022/09/15 10:59:56;;;;;;;5.88;1.40;;;23.10;55.70;;;;;;5033403;28;20092;-61
2022/09/15 11:02:55;;;;;;;3.15;1.33;;;23.00;55.70;;;;;;5030281;28;20053;-60
2022/09/15 11:05:47;;;;;;;6.55;1.90;;;22.90;56.00;;;;;;5032531;28;20068;-60
2022/09/15 11:08:41;;;;;;;2.95;1.52;;;22.80;57.00;;;;;;5025765;28;20058;-60
2022/09/15 11:11:32;;;;;;;4.57;2.20;;;22.60;57.00;;;;;;5032401;28;20081;-59
2022/09/15 11:14:31;;;;;;;4.13;2.13;;;22.60;58.30;;;;;;5037042;28;23179;-61
2022/09/15 11:17:22;;;;;;;4.00;1.80;;;22.50;58.00;;;;;;5035544;28;20051;-60
2022/09/15 11:20:06;;;;;;;1.80;1.42;;;22.40;58.80;;;;;;5035982;28;20401;-59
2022/09/15 11:22:43;;;;;;;3.17;1.63;;;22.30;58.20;;;;;;5037834;28;20447;-59
2022/09/15 11:25:27;;;;;;;4.60;1.73;;;22.30;58.50;;;;;;5037070;28;20108;-59
2022/09/15 11:28:10;;;;;;;2.20;1.83;;;22.20;58.50;;;;;;5035573;28;20446;-58
2022/09/15 11:30:44;;;;;;;5.10;1.55;;;22.10;58.60;;;;;;5036031;28;20412;-60
2022/09/15 11:33:30;;;;;;;3.83;1.50;;;22.10;58.90;;;;;;5034103;28;20640;-59
2022/09/15 11:36:20;;;;;;;4.60;1.52;;;22.00;59.20;;;;;;5034743;28;20049;-60
2022/09/15 11:39:03;;;;;;;4.88;1.90;;;21.90;58.80;;;;;;5035938;28;20066;-60
2022/09/15 11:41:40;;;;;;;5.88;1.92;;;21.90;59.50;;;;;;5031056;28;20041;-60
2022/09/15 11:44:28;;;;;;;2.38;1.50;;;21.80;59.60;;;;;;5040262;28;20049;-59
2022/09/15 11:47:24;;;;;;;2.67;1.30;;;21.80;59.70;;;;;;5037589;28;20136;-59
2022/09/15 11:50:02;;;;;;;2.35;1.50;;;21.80;60.40;;;;;;5034378;28;20052;-60
2022/09/15 11:52:56;;;;;;;3.83;1.60;;;21.70;60.30;;;;;;5035254;28;20045;-61
2022/09/15 11:55:50;;;;;;;5.25;1.77;;;21.70;60.50;;;;;;5020106;28;20046;-61
2022/09/15 11:58:57;;;;;;;3.67;1.77;;;21.70;60.70;;;;;;5020023;28;20050;-60
2022/09/15 12:01:38;;;;;;;4.55;1.60;;;21.60;60.80;;;;;;5036874;28;20057;-59
2022/09/15 12:04:30;;;;;;;3.35;1.50;;;21.60;61.30;;;;;;5037320;28;20130;-60
2022/09/15 12:07:10;;;;;;;5.95;1.55;;;21.50;61.40;;;;;;5039334;28;20041;-60
2022/09/15 12:09:40;;;;;;;5.18;1.85;;;21.40;62.00;;;;;;5036883;28;20509;-61
2022/09/15 12:12:14;;;;;;;2.13;1.42;;;21.40;61.60;;;;;;5031619;28;20049;-60
2022/09/15 12:14:44;;;;;;;3.67;1.60;;;21.40;61.80;;;;;;5035126;28;20053;-61
2022/09/15 12:17:33;;;;;;;3.80;1.63;;;21.30;61.30;;;;;;5038124;28;20480;-59
2022/09/15 12:20:25;;;;;;;4.72;1.67;;;21.30;61.10;;;;;;5038378;28;20091;-60
2022/09/15 12:23:20;;;;;;;4.03;2.13;;;21.30;61.40;;;;;;5036669;28;20140;-63
2022/09/15 12:26:14;;;;;;;6.43;1.65;;;21.20;61.60;;;;;;5039627;28;20049;-60
2022/09/15 12:29:01;;;;;;;6.63;1.92;;;21.20;61.90;;;;;;5035269;28;20045;-60
2022/09/15 12:31:38;;;;;;;4.35;1.77;;;21.20;62.20;;;;;;5025566;28;20493;-60
2022/09/15 12:34:34;;;;;;;1.60;1.50;;;21.20;62.50;;;;;;5042715;28;20240;-61
2022/09/15 12:37:13;;;;;;;8.00;1.80;;;21.20;62.50;;;;;;5042081;28;20071;-63
2022/09/15 12:39:43;;;;;;;3.85;1.58;;;21.10;63.40;;;;;;5037235;28;20413;-60
2022/09/15 12:42:25;;;;;;;4.88;2.03;;;21.10;64.40;;;;;;5038249;28;20191;-59
2022/09/15 12:45:06;;;;;;;2.70;1.50;;;21.10;64.70;;;;;;5036589;28;20637;-60
2022/09/15 12:47:38;;;;;;;4.63;1.80;;;21.10;63.30;;;;;;5033868;28;20049;-64
2022/09/15 12:50:23;;;;;;;6.50;1.65;;;21.10;62.80;;;;;;5043851;28;20053;-62
2022/09/15 12:52:56;;;;;;;4.47;2.35;;;21.10;61.50;;;;;;5040150;28;20492;-61
2022/09/15 12:55:27;;;;;;;4.80;1.70;;;21.10;61.20;;;;;;5042117;28;20106;-60
2022/09/15 12:58:09;;;;;;;2.65;1.83;;;21.00;61.20;;;;;;5043591;28;20049;-61
2022/09/15 13:00:42;;;;;;;2.55;1.52;;;20.90;62.50;;;;;;5041684;28;20041;-62
2022/09/15 13:04:09;;;;;;;4.55;1.70;;;20.90;62.40;;;;;;5031723;28;20056;-64
2022/09/15 13:06:37;;;;;;;2.45;1.45;;;20.80;61.50;;;;;;5028897;28;20049;-60
2022/09/15 13:09:25;;;;;;;4.50;1.48;;;20.70;62.00;;;;;;5041611;28;20045;-58
2022/09/15 13:11:54;;;;;;;4.78;1.40;;;20.70;62.20;;;;;;5037535;28;20049;-61
2022/09/15 13:14:40;;;;;;;2.85;1.58;;;20.70;62.40;;;;;;5037982;28;20128;-60
2022/09/15 13:17:18;;;;;;;2.10;1.67;;;20.70;61.80;;;;;;5010629;28;20053;-64
2022/09/15 13:19:47;;;;;;;2.70;1.52;;;20.70;62.60;;;;;;5036307;28;20045;-60
2022/09/15 13:22:36;;;;;;;6.47;2.53;;;20.70;62.60;;;;;;5020132;28;20416;-60
2022/09/15 13:25:15;;;;;;;5.57;1.85;;;20.70;62.00;;;;;;5039102;28;20520;-60